Time;durP1;ratioP1;P1;durP2;ratioP2;P2;SDS_P1;SDS_P2;PMS_P1;PMS_P2;Temp;Humidity;BMP_temperature;BMP_pressure;BME280_temperature;BME280_humidity;BME280_pressure;Samples;Min_cycle;Max_cycle;Signal;HPM_P1;HPM_P2
2022/01/08 00:00:14;;;;;;;12.17;6.83;;;;;;;2.20;92.48;100878.19;5059413;28;20216;-70
2022/01/08 00:02:39;;;;;;;9.83;6.63;;;;;;;2.26;92.12;100878.50;5059198;28;20204;-71
2022/01/08 00:05:05;;;;;;;10.60;6.77;;;;;;;2.30;91.65;100884.59;5059567;28;20506;-71
2022/01/08 00:07:30;;;;;;;9.50;6.83;;;;;;;2.31;92.20;100886.34;5069512;28;20204;-70
2022/01/08 00:09:56;;;;;;;12.70;7.03;;;;;;;2.35;92.18;100878.13;5065154;28;20256;-71
2022/01/08 00:12:21;;;;;;;11.67;7.33;;;;;;;2.37;92.03;100885.00;5054965;28;20278;-71
2022/01/08 00:14:47;;;;;;;8.87;6.23;;;;;;;2.40;91.53;100892.75;5052799;28;20272;-70
2022/01/08 00:17:12;;;;;;;10.83;6.70;;;;;;;2.42;90.81;100897.84;5054309;28;20301;-71
2022/01/08 00:19:38;;;;;;;9.20;5.77;;;;;;;2.39;91.24;100896.03;5056377;28;20197;-71
2022/01/08 00:22:03;;;;;;;8.70;6.63;;;;;;;2.42;91.17;100893.69;5068232;28;20199;-70
2022/01/08 00:24:28;;;;;;;10.43;6.40;;;;;;;2.42;91.24;100902.91;5068875;28;20683;-71
2022/01/08 00:26:54;;;;;;;13.20;6.87;;;;;;;2.44;90.59;100899.66;5054078;28;20220;-71
2022/01/08 00:29:19;;;;;;;11.40;7.13;;;;;;;2.40;91.93;100899.44;5060685;28;20694;-70
2022/01/08 00:31:44;;;;;;;8.87;6.40;;;;;;;2.41;90.90;100894.47;5057216;28;20823;-72
2022/01/08 00:34:10;;;;;;;9.20;6.67;;;;;;;2.42;91.66;100897.84;5052415;28;20190;-71
2022/01/08 00:36:36;;;;;;;8.70;6.60;;;;;;;2.42;90.69;100890.28;5054147;28;20220;-71
2022/01/08 00:39:01;;;;;;;7.73;6.27;;;;;;;2.38;90.99;100870.69;5063493;28;20726;-72
2022/01/08 00:41:26;;;;;;;11.77;8.20;;;;;;;2.37;90.92;100886.66;5061998;28;20229;-72
2022/01/08 00:43:52;;;;;;;10.30;6.57;;;;;;;2.35;91.03;100888.25;5055651;28;20564;-70
2022/01/08 00:46:18;;;;;;;9.07;6.87;;;;;;;2.34;91.17;100887.34;5072749;28;20207;-71
2022/01/08 00:48:44;;;;;;;9.53;7.10;;;;;;;2.34;91.25;100883.97;5059786;28;20266;-71
2022/01/08 00:51:10;;;;;;;10.03;7.03;;;;;;;2.33;91.56;100879.69;5057247;28;20239;-71
2022/01/08 00:53:36;;;;;;;11.63;7.07;;;;;;;2.33;90.87;100890.69;5058321;28;20814;-72
2022/01/08 00:56:01;;;;;;;9.30;7.77;;;;;;;2.31;91.09;100888.84;5059973;28;20263;-71
2022/01/08 00:58:27;;;;;;;9.20;7.57;;;;;;;2.31;90.66;100883.81;5060706;28;20701;-70
2022/01/08 01:00:52;;;;;;;9.70;6.83;;;;;;;2.26;90.70;100873.44;5065697;28;20736;-71
2022/01/08 01:03:17;;;;;;;10.33;7.87;;;;;;;2.26;90.60;100882.69;5053141;28;20194;-71
2022/01/08 01:05:43;;;;;;;11.80;7.93;;;;;;;2.27;91.65;100881.91;5056342;28;20204;-71
2022/01/08 01:08:08;;;;;;;8.50;7.20;;;;;;;2.27;91.58;100872.69;5057500;28;20213;-71
2022/01/08 01:10:33;;;;;;;9.90;7.67;;;;;;;2.25;91.41;100869.19;5060928;28;20190;-71
2022/01/08 01:12:59;;;;;;;11.13;8.03;;;;;;;2.26;90.81;100870.06;5058890;28;20280;-71
2022/01/08 01:15:24;;;;;;;12.47;7.87;;;;;;;2.25;90.69;100876.78;5059663;28;20180;-71
2022/01/08 01:17:49;;;;;;;9.33;7.50;;;;;;;2.26;91.35;100877.66;5054350;28;20975;-71
2022/01/08 01:20:17;;;;;;;9.97;7.63;;;;;;;2.23;90.87;100869.91;5066712;28;20266;-71
2022/01/08 01:25:27;;;;;;;11.90;7.93;;;;;;;2.24;91.25;100877.56;5058352;28;20193;-71
2022/01/08 01:30:26;;;;;;;14.03;8.10;;;;;;;2.22;90.90;100878.28;5056079;28;20640;-70
2022/01/08 01:41:45;;;;;;;9.97;7.97;;;;;;;2.22;91.06;100878.28;5058139;28;20216;-71
2022/01/08 01:47:00;;;;;;;10.87;7.30;;;;;;;2.22;92.01;100883.31;5050359;28;20207;-71
2022/01/08 01:47:02;;;;;;;9.77;7.00;;;;;;;2.25;91.84;100883.50;5052492;28;20213;-71
2022/01/08 01:49:32;;;;;;;11.60;7.77;;;;;;;2.27;91.13;100876.84;5050740;28;20196;-71
2022/01/08 01:51:59;;;;;;;12.47;7.83;;;;;;;2.27;91.95;100880.25;5061067;28;20234;-71
2022/01/08 01:54:26;;;;;;;9.87;7.23;;;;;;;2.26;91.33;100882.69;5057365;28;20225;-70
2022/01/08 01:56:52;;;;;;;9.07;7.57;;;;;;;2.26;92.00;100878.50;5061942;28;20204;-71
2022/01/08 01:59:17;;;;;;;9.20;7.00;;;;;;;2.26;90.95;100877.66;5060960;28;20243;-71
2022/01/08 02:01:42;;;;;;;10.17;7.37;;;;;;;2.25;91.72;100876.78;5053129;28;20280;-70
2022/01/08 02:04:08;;;;;;;10.23;7.03;;;;;;;2.26;91.90;100875.97;5052885;28;20185;-71
2022/01/08 02:06:33;;;;;;;9.23;6.97;;;;;;;2.26;91.13;100883.56;5059351;28;20355;-71
2022/01/08 02:08:58;;;;;;;9.30;7.47;;;;;;;2.29;91.55;100882.88;5062193;28;20218;-71
2022/01/08 02:11:24;;;;;;;9.07;6.90;;;;;;;2.28;91.33;100884.53;5053045;28;20192;-71
2022/01/08 02:13:49;;;;;;;9.63;7.27;;;;;;;2.29;90.88;100872.78;5052508;28;20197;-71
2022/01/08 02:16:17;;;;;;;9.03;6.60;;;;;;;2.30;91.18;100877.03;5049137;28;20209;-71
2022/01/08 02:18:47;;;;;;;11.67;7.10;;;;;;;2.30;90.13;100884.59;5051521;28;20208;-71
2022/01/08 02:21:16;;;;;;;8.30;6.97;;;;;;;2.30;90.79;100882.94;5063345;28;20197;-71
2022/01/08 02:23:42;;;;;;;9.63;7.20;;;;;;;2.31;91.66;100878.75;5060128;28;20197;-70
2022/01/08 02:26:09;;;;;;;8.93;7.17;;;;;;;2.30;90.81;100871.97;5045199;28;20394;-71
2022/01/08 02:28:39;;;;;;;10.03;8.03;;;;;;;2.30;90.78;100870.31;5058889;28;20200;-71
2022/01/08 02:31:05;;;;;;;11.50;7.07;;;;;;;2.31;91.25;100867.00;5057897;28;20273;-71
2022/01/08 02:33:31;;;;;;;12.33;7.23;;;;;;;2.31;91.07;100873.72;5052196;28;20634;-71
2022/01/08 02:35:58;;;;;;;10.77;7.90;;;;;;;2.30;90.00;100875.34;5065279;28;20205;-70
2022/01/08 02:38:24;;;;;;;11.77;8.70;;;;;;;2.32;90.73;100871.25;5052943;28;20197;-70
2022/01/08 02:40:57;;;;;;;10.53;8.03;;;;;;;2.31;90.66;100874.59;5064299;28;20220;-70
2022/01/08 02:43:24;;;;;;;13.27;9.43;;;;;;;2.33;90.22;100872.13;5055067;28;20264;-72
2022/01/08 02:45:49;;;;;;;12.57;9.03;;;;;;;2.33;90.28;100873.00;5060405;28;20220;-72
2022/01/08 02:48:14;;;;;;;11.23;9.03;;;;;;;2.33;91.16;100865.41;5054145;28;20647;-72
2022/01/08 02:50:40;;;;;;;14.70;9.00;;;;;;;2.32;91.38;100873.78;5066138;28;20638;-70
2022/01/08 02:53:05;;;;;;;14.43;9.70;;;;;;;2.32;91.37;100867.84;5057437;28;20811;-72
2022/01/08 02:55:30;;;;;;;13.13;9.13;;;;;;;2.32;91.09;100875.44;5065233;28;20603;-72
2022/01/08 02:57:56;;;;;;;14.63;9.30;;;;;;;2.30;90.63;100870.31;5065162;28;20195;-72
2022/01/08 03:00:21;;;;;;;12.10;8.93;;;;;;;2.32;90.09;100883.00;5053772;28;20631;-72
2022/01/08 03:02:49;;;;;;;12.10;8.77;;;;;;;2.31;90.56;100878.75;5052629;28;20560;-72
2022/01/08 03:05:15;;;;;;;11.67;8.80;;;;;;;2.30;90.97;100882.06;5057629;28;20651;-72
2022/01/08 03:07:43;;;;;;;12.00;9.30;;;;;;;2.30;90.48;100877.88;5065160;28;20200;-72
2022/01/08 03:10:11;;;;;;;12.27;9.10;;;;;;;2.29;90.78;100878.66;5050075;28;20281;-72
2022/01/08 03:12:43;;;;;;;11.40;8.63;;;;;;;2.30;91.22;100875.34;5059261;28;20197;-72
2022/01/08 03:15:12;;;;;;;12.17;8.83;;;;;;;2.29;90.66;100872.78;5064131;28;20189;-72
2022/01/08 03:17:38;;;;;;;14.20;9.00;;;;;;;2.30;90.41;100872.81;5064971;28;20209;-71
2022/01/08 03:20:06;;;;;;;10.80;8.37;;;;;;;2.29;90.02;100867.72;5055701;28;20267;-72
2022/01/08 03:22:32;;;;;;;10.60;8.27;;;;;;;2.24;89.97;100870.00;5057569;28;20271;-72
2022/01/08 03:24:58;;;;;;;13.63;9.37;;;;;;;2.23;90.54;100874.97;5054978;28;20200;-71
2022/01/08 03:27:23;;;;;;;11.03;8.93;;;;;;;2.23;90.34;100869.91;5061913;28;20240;-72
2022/01/08 03:29:49;;;;;;;13.30;9.50;;;;;;;2.23;89.77;100868.25;5060970;28;20189;-72
2022/01/08 03:32:14;;;;;;;13.57;9.20;;;;;;;2.20;90.00;100865.56;5060915;28;20181;-72
2022/01/08 03:34:40;;;;;;;11.20;8.57;;;;;;;2.22;89.99;100873.22;5070112;28;20569;-72
2022/01/08 03:37:05;;;;;;;14.83;9.80;;;;;;;2.23;90.02;100868.25;5071977;28;20197;-72
2022/01/08 03:39:30;;;;;;;15.03;10.10;;;;;;;2.23;90.26;100874.97;5071808;28;20212;-72
2022/01/08 03:41:56;;;;;;;15.27;10.73;;;;;;;2.22;90.76;100873.22;5072046;28;20551;-72
2022/01/08 03:44:21;;;;;;;15.57;10.70;;;;;;;2.22;90.00;100868.19;5072085;28;20201;-72
2022/01/08 03:46:46;;;;;;;15.93;10.47;;;;;;;2.19;90.11;100876.47;5071970;28;20668;-71
2022/01/08 03:49:45;;;;;;;14.53;10.50;;;;;;;2.22;90.59;100881.69;5065116;28;20186;-72
2022/01/08 03:52:03;;;;;;;16.10;10.80;;;;;;;2.24;90.34;100889.31;5062182;28;20205;-72
2022/01/08 03:54:28;;;;;;;15.33;10.90;;;;;;;2.20;90.47;100888.28;5064002;28;20234;-71
2022/01/08 03:56:54;;;;;;;15.07;10.73;;;;;;;2.20;90.67;100890.81;5058628;28;20218;-72
2022/01/08 03:59:19;;;;;;;13.57;10.60;;;;;;;2.19;90.50;100893.25;5060130;28;20217;-72
2022/01/08 04:01:44;;;;;;;15.43;10.93;;;;;;;2.19;90.43;100894.13;5058447;28;20186;-72
2022/01/08 04:04:10;;;;;;;17.23;11.27;;;;;;;2.21;90.69;100879.06;5064587;28;20212;-72
2022/01/08 04:06:35;;;;;;;20.10;11.93;;;;;;;2.19;90.17;100885.69;5063345;28;20690;-72
2022/01/08 04:09:00;;;;;;;17.90;12.03;;;;;;;2.20;90.98;100885.75;5063790;28;20193;-72
2022/01/08 04:11:26;;;;;;;19.53;11.90;;;;;;;2.21;90.67;100886.66;5066936;28;20676;-72
2022/01/08 04:13:53;;;;;;;17.87;12.70;;;;;;;2.20;90.57;100882.41;5057563;28;20192;-72
2022/01/08 04:16:24;;;;;;;22.53;13.30;;;;;;;2.18;90.50;100882.31;5062538;28;20213;-72
2022/01/08 04:18:49;;;;;;;16.90;11.50;;;;;;;2.17;90.72;100888.16;5058063;28;20205;-72
2022/01/08 04:21:58;;;;;;;19.93;12.73;;;;;;;2.20;91.06;100890.81;5060376;28;20751;-73
2022/01/08 04:24:07;;;;;;;22.87;14.37;;;;;;;2.19;90.93;100880.63;5057508;28;20197;-73
2022/01/08 04:26:32;;;;;;;24.83;14.90;;;;;;;2.16;90.64;100878.81;5068953;28;20213;-73
2022/01/08 04:28:58;;;;;;;23.93;14.63;;;;;;;2.18;90.88;100867.16;5050473;28;20188;-72
2022/01/08 04:31:25;;;;;;;25.97;16.07;;;;;;;2.17;91.18;100870.47;5068890;28;20938;-72
2022/01/08 04:33:51;;;;;;;22.97;15.20;;;;;;;2.18;91.41;100867.16;5071123;28;20660;-72
2022/01/08 04:36:17;;;;;;;27.53;17.03;;;;;;;2.19;90.61;100862.94;5071034;28;20201;-73
2022/01/08 04:38:42;;;;;;;26.27;16.73;;;;;;;2.20;90.70;100859.66;5070701;28;20185;-73
2022/01/08 04:41:08;;;;;;;32.67;17.50;;;;;;;2.19;91.26;100863.84;5071032;28;20185;-72
2022/01/08 04:43:37;;;;;;;26.80;16.40;;;;;;;2.20;90.94;100864.72;5070910;28;20216;-72
2022/01/08 04:46:02;;;;;;;23.60;15.73;;;;;;;2.19;91.64;100866.34;5070929;28;20278;-73
2022/01/08 04:48:27;;;;;;;26.30;16.97;;;;;;;2.20;90.47;100858.00;5070361;28;20537;-72
2022/01/08 04:50:53;;;;;;;30.87;18.40;;;;;;;2.20;90.96;100858.00;5070802;28;20185;-72
2022/01/08 04:53:18;;;;;;;26.10;16.53;;;;;;;2.21;90.97;100858.88;5070712;28;20189;-72
2022/01/08 04:55:43;;;;;;;30.37;18.23;;;;;;;2.20;91.42;100863.03;5070627;28;20196;-72
2022/01/08 04:58:09;;;;;;;30.80;18.20;;;;;;;2.22;90.42;100863.13;5070428;28;20193;-71
2022/01/08 05:00:36;;;;;;;31.37;17.37;;;;;;;2.21;90.58;100866.44;5069262;28;20220;-72
2022/01/08 05:03:03;;;;;;;28.47;17.70;;;;;;;2.19;90.53;100856.25;5069119;28;20254;-72
2022/01/08 05:05:28;;;;;;;28.33;17.33;;;;;;;2.20;90.99;100852.94;5070282;28;20242;-72
2022/01/08 05:07:54;;;;;;;28.77;17.07;;;;;;;2.22;89.72;100855.53;5070302;28;20604;-72
2022/01/08 05:10:19;;;;;;;24.83;16.30;;;;;;;2.22;90.08;100851.38;5070248;28;20193;-71
2022/01/08 05:12:44;;;;;;;27.30;17.13;;;;;;;2.20;91.02;100859.66;5066384;28;20200;-72
2022/01/08 05:15:11;;;;;;;26.73;16.70;;;;;;;2.19;91.18;100861.31;5058599;28;20276;-71
2022/01/08 05:17:38;;;;;;;24.83;16.50;;;;;;;2.19;90.52;100858.78;5050346;28;20198;-72
2022/01/08 05:20:09;;;;;;;26.60;15.63;;;;;;;2.21;91.28;100859.72;5069506;28;20288;-71
2022/01/08 05:25:16;;;;;;;26.63;15.60;;;;;;;2.21;90.75;100864.78;5070250;28;20254;-72
2022/01/08 05:27:42;;;;;;;24.07;16.00;;;;;;;2.21;90.81;100866.44;5070427;28;20181;-71
2022/01/08 05:30:08;;;;;;;26.10;16.47;;;;;;;2.21;90.63;100861.41;5067253;28;20554;-72
2022/01/08 05:32:34;;;;;;;25.03;16.13;;;;;;;2.24;90.89;100852.31;5053136;28;20193;-72
2022/01/08 05:34:59;;;;;;;26.63;15.17;;;;;;;2.23;91.56;100869.91;5059687;28;20203;-72
2022/01/08 05:37:25;;;;;;;25.20;15.77;;;;;;;2.24;90.86;100869.09;5069707;28;20209;-72
2022/01/08 05:39:51;;;;;;;27.13;17.27;;;;;;;2.25;91.29;100865.81;5069557;28;20217;-71
2022/01/08 05:42:17;;;;;;;23.37;15.33;;;;;;;2.25;90.71;100873.41;5069856;28;20189;-71
2022/01/08 05:44:42;;;;;;;25.63;15.47;;;;;;;2.23;90.97;100878.38;5069735;28;20192;-72
2022/01/08 05:47:08;;;;;;;24.43;15.53;;;;;;;2.24;91.27;100880.09;5069749;28;20784;-72
2022/01/08 05:49:33;;;;;;;26.87;16.37;;;;;;;2.23;90.83;100883.41;5069143;28;20272;-71
2022/01/08 05:51:59;;;;;;;28.03;17.53;;;;;;;2.25;91.41;100886.03;5069505;28;20242;-72
2022/01/08 05:54:24;;;;;;;28.60;16.80;;;;;;;2.25;90.80;100884.34;5069428;28;20185;-72
2022/01/08 05:56:51;;;;;;;27.20;17.83;;;;;;;2.27;91.51;100889.47;5069496;28;20199;-71
2022/01/08 05:59:17;;;;;;;26.23;17.13;;;;;;;2.26;90.42;100883.56;5069401;28;20212;-72
2022/01/08 06:01:42;;;;;;;29.13;17.10;;;;;;;2.26;91.58;100888.59;5069709;28;20196;-71
2022/01/08 06:04:07;;;;;;;28.67;17.30;;;;;;;2.28;91.18;100892.09;5069364;28;20185;-72
2022/01/08 06:06:33;;;;;;;28.63;17.27;;;;;;;2.28;91.42;100894.63;5069160;28;20693;-71
2022/01/08 06:08:58;;;;;;;28.80;16.30;;;;;;;2.29;91.82;100892.97;5067908;28;20634;-72
2022/01/08 06:11:23;;;;;;;23.97;15.63;;;;;;;2.31;91.05;100897.31;5069528;28;20173;-71
2022/01/08 06:13:49;;;;;;;27.83;16.37;;;;;;;2.28;90.96;100902.19;5069583;28;20276;-72
2022/01/08 06:16:14;;;;;;;26.30;16.27;;;;;;;2.30;90.47;100903.13;5069429;28;20207;-72
2022/01/08 06:18:40;;;;;;;24.60;15.73;;;;;;;2.30;90.98;100892.19;5067853;28;20246;-71
2022/01/08 06:21:06;;;;;;;22.33;14.37;;;;;;;2.31;90.44;100893.91;5069060;28;20590;-72
2022/01/08 06:23:31;;;;;;;25.10;14.67;;;;;;;2.31;91.09;100897.31;5069395;28;20177;-71
2022/01/08 06:25:57;;;;;;;22.67;14.27;;;;;;;2.33;90.71;100893.19;5069344;28;20208;-72
2022/01/08 06:28:22;;;;;;;22.03;13.50;;;;;;;2.32;90.63;100904.09;5069152;28;20189;-72
2022/01/08 06:30:48;;;;;;;22.00;13.83;;;;;;;2.32;90.57;100906.63;5069439;28;20174;-71
2022/01/08 06:33:14;;;;;;;19.70;13.57;;;;;;;2.34;90.85;100906.72;5069363;28;20826;-72
2022/01/08 06:35:40;;;;;;;20.27;12.73;;;;;;;2.35;90.96;100921.91;5068986;28;20228;-72
2022/01/08 06:38:05;;;;;;;23.17;14.17;;;;;;;2.33;90.66;100925.16;5068620;28;20733;-72
2022/01/08 06:40:30;;;;;;;21.30;13.43;;;;;;;2.36;90.58;100935.44;5069072;28;20211;-71
2022/01/08 06:42:56;;;;;;;19.97;12.97;;;;;;;2.35;90.86;100938.75;5069331;28;20196;-72
2022/01/08 06:45:21;;;;;;;17.67;12.77;;;;;;;2.36;90.06;100932.91;5069344;28;20181;-71
2022/01/08 06:47:46;;;;;;;24.67;13.60;;;;;;;2.35;90.75;100949.72;5068098;28;20239;-70
2022/01/08 06:50:12;;;;;;;21.23;13.90;;;;;;;2.37;91.40;100943.09;5068711;28;20185;-72
2022/01/08 06:52:38;;;;;;;20.73;13.73;;;;;;;2.37;91.09;100943.09;5069085;28;20196;-72
2022/01/08 06:55:04;;;;;;;27.30;14.13;;;;;;;2.38;90.13;100941.44;5067722;28;20193;-71
2022/01/08 06:57:30;;;;;;;21.53;13.37;;;;;;;2.38;90.40;100946.47;5069030;28;20212;-72
2022/01/08 06:59:55;;;;;;;21.37;13.80;;;;;;;2.41;90.48;100957.63;5068896;28;20295;-71
2022/01/08 07:02:20;;;;;;;19.27;13.60;;;;;;;2.39;90.78;100944.03;5070962;28;20196;-72
2022/01/08 07:04:46;;;;;;;22.30;13.67;;;;;;;2.41;90.67;100955.09;5072861;28;20181;-72
2022/01/08 07:07:11;;;;;;;23.37;14.20;;;;;;;2.40;90.58;100955.03;5072760;28;20205;-72
2022/01/08 07:09:36;;;;;;;23.97;15.07;;;;;;;2.39;90.96;100963.41;5072551;28;20185;-71
2022/01/08 07:12:02;;;;;;;21.67;14.23;;;;;;;2.42;90.86;100956.84;5072843;28;20193;-72
2022/01/08 07:14:27;;;;;;;24.47;14.60;;;;;;;2.40;91.15;100963.47;5072725;28;20562;-72
2022/01/08 07:16:54;;;;;;;25.83;15.47;;;;;;;2.41;90.85;100955.09;5072269;28;20212;-71
2022/01/08 07:19:19;;;;;;;27.83;16.80;;;;;;;2.41;91.37;100955.09;5054076;28;20212;-71
2022/01/08 07:21:45;;;;;;;26.27;16.43;;;;;;;2.45;91.46;100943.50;5072565;28;20317;-71
2022/01/08 07:24:10;;;;;;;24.23;15.57;;;;;;;2.42;90.80;100938.28;5072451;28;20192;-72
2022/01/08 07:26:36;;;;;;;24.83;16.47;;;;;;;2.44;91.14;100941.78;5072527;28;20232;-72
2022/01/08 07:29:01;;;;;;;30.43;17.20;;;;;;;2.45;91.12;100939.34;5071069;28;20217;-71
2022/01/08 07:31:26;;;;;;;26.30;15.83;;;;;;;2.44;90.97;100937.56;5071181;28;20189;-71
2022/01/08 07:33:51;;;;;;;27.33;17.77;;;;;;;2.43;91.99;100940.88;5072274;28;20211;-71
2022/01/08 07:36:17;;;;;;;28.07;18.03;;;;;;;2.45;91.75;100938.44;5072172;28;20204;-72
2022/01/08 07:38:43;;;;;;;26.03;15.93;;;;;;;2.46;91.68;100937.66;5071551;28;20620;-71
2022/01/08 07:41:08;;;;;;;24.43;17.43;;;;;;;2.45;91.72;100940.97;5072086;28;20196;-72
2022/01/08 07:43:34;;;;;;;28.30;18.20;;;;;;;2.47;91.34;100945.31;5072274;28;20303;-72
2022/01/08 07:45:59;;;;;;;33.23;20.50;;;;;;;2.48;91.13;100941.16;5071928;28;20212;-72
2022/01/08 07:48:24;;;;;;;31.17;20.37;;;;;;;2.48;91.58;100936.94;5071646;28;20268;-71
2022/01/08 07:50:50;;;;;;;29.70;19.60;;;;;;;2.50;91.98;100931.97;5072115;28;20185;-72
2022/01/08 07:53:15;;;;;;;26.63;16.17;;;;;;;2.49;91.30;100932.78;5069470;28;20306;-72
2022/01/08 07:55:41;;;;;;;27.93;16.37;;;;;;;2.49;91.09;100932.78;5041268;28;20696;-72
2022/01/08 07:58:06;;;;;;;27.13;16.50;;;;;;;2.49;90.94;100935.28;5066443;28;20193;-72
2022/01/08 08:00:31;;;;;;;26.03;18.20;;;;;;;2.52;91.52;100938.00;5071465;28;20208;-72
2022/01/08 08:02:57;;;;;;;26.60;16.53;;;;;;;2.51;91.08;100932.06;5071869;28;20666;-72
2022/01/08 08:05:22;;;;;;;28.13;17.87;;;;;;;2.52;91.37;100933.78;5069849;28;20192;-71
2022/01/08 08:07:48;;;;;;;28.57;16.97;;;;;;;2.55;91.98;100935.59;5071732;28;20197;-71
2022/01/08 08:10:17;;;;;;;29.77;16.70;;;;;;;2.54;91.12;100939.81;5071630;28;20190;-72
2022/01/08 08:12:43;;;;;;;26.40;17.00;;;;;;;2.56;91.57;100939.88;5071230;28;20666;-72
2022/01/08 08:15:12;;;;;;;26.50;16.97;;;;;;;2.53;91.10;100943.09;5071723;28;20242;-72
2022/01/08 08:17:38;;;;;;;26.10;16.97;;;;;;;2.54;91.08;100938.94;5070145;28;20196;-71
2022/01/08 08:20:04;;;;;;;28.23;17.27;;;;;;;2.55;90.79;100938.13;5071147;28;20603;-71
2022/01/08 08:22:29;;;;;;;28.43;17.27;;;;;;;2.54;91.35;100932.22;5071460;28;20540;-71
2022/01/08 08:24:55;;;;;;;29.60;17.33;;;;;;;2.56;91.05;100925.59;5071378;28;20185;-71
2022/01/08 08:27:20;;;;;;;25.30;17.37;;;;;;;2.55;91.42;100923.84;5071150;28;20208;-71
2022/01/08 08:29:45;;;;;;;28.07;16.83;;;;;;;2.56;90.55;100912.06;5070984;28;20184;-71
2022/01/08 08:32:11;;;;;;;24.87;15.97;;;;;;;2.58;90.63;100920.63;5071074;28;20194;-72
2022/01/08 08:34:36;;;;;;;26.50;15.67;;;;;;;2.57;90.58;100916.34;5070882;28;20189;-72
2022/01/08 08:37:02;;;;;;;23.77;14.97;;;;;;;2.59;90.93;100913.13;5070906;28;20323;-71
2022/01/08 08:39:27;;;;;;;24.03;17.23;;;;;;;2.65;90.70;100915.06;5069401;28;20228;-72
2022/01/08 08:41:53;;;;;;;26.30;16.03;;;;;;;2.65;90.11;100921.00;5070866;28;20177;-72
2022/01/08 08:44:19;;;;;;;27.50;16.07;;;;;;;2.60;90.00;100912.31;5070639;28;20188;-71
2022/01/08 08:46:44;;;;;;;24.03;15.70;;;;;;;2.60;89.71;100921.56;5070727;28;20575;-72
2022/01/08 08:49:09;;;;;;;25.13;15.67;;;;;;;2.97;90.61;100915.06;5062831;28;20286;-71
2022/01/08 08:51:35;;;;;;;26.50;16.07;;;;;;;3.04;90.59;100917.97;5069433;28;20268;-77
2022/01/08 08:54:01;;;;;;;25.90;15.80;;;;;;;2.94;89.78;100919.97;5072007;28;20269;-77
2022/01/08 08:56:27;;;;;;;25.00;15.97;;;;;;;2.96;89.12;100918.38;5061139;28;20274;-72
2022/01/08 08:58:53;;;;;;;22.23;15.20;;;;;;;2.82;89.24;100911.75;5070285;28;20299;-72
2022/01/08 09:01:18;;;;;;;26.37;15.67;;;;;;;2.80;89.71;100915.88;5070392;28;20276;-72
2022/01/08 09:03:43;;;;;;;22.40;15.10;;;;;;;2.79;89.86;100909.06;5069470;28;20193;-72
2022/01/08 09:06:09;;;;;;;25.43;15.80;;;;;;;2.81;89.48;100903.28;5052625;28;20212;-72
2022/01/08 09:08:34;;;;;;;20.03;14.20;;;;;;;2.81;90.12;100902.44;5070170;28;20185;-72
2022/01/08 09:10:59;;;;;;;23.00;14.73;;;;;;;2.83;89.61;100899.19;5069085;28;20200;-72
2022/01/08 09:13:26;;;;;;;22.63;14.27;;;;;;;2.79;89.70;100899.84;5070548;28;20181;-72
2022/01/08 09:15:51;;;;;;;24.27;14.77;;;;;;;2.80;89.99;100905.78;5070369;28;20201;-72
2022/01/08 09:18:16;;;;;;;23.43;15.00;;;;;;;2.80;90.28;100896.50;5069610;28;20199;-71
2022/01/08 09:20:43;;;;;;;22.63;14.73;;;;;;;2.82;90.12;100900.00;5068949;28;20258;-72
2022/01/08 09:23:08;;;;;;;21.33;13.93;;;;;;;2.82;90.03;100901.66;5069973;28;20287;-71
2022/01/08 09:25:34;;;;;;;26.77;15.33;;;;;;;2.84;89.79;100892.47;5069182;28;20292;-72
2022/01/08 09:27:59;;;;;;;24.87;14.97;;;;;;;2.85;89.45;100886.66;5069741;28;20192;-72
2022/01/08 09:30:26;;;;;;;26.13;15.33;;;;;;;2.89;90.13;100891.06;5069816;28;20238;-71
2022/01/08 09:32:51;;;;;;;22.43;14.03;;;;;;;2.88;90.01;100896.88;5070014;28;20257;-72
2022/01/08 09:35:18;;;;;;;28.23;15.30;;;;;;;2.90;89.61;100896.16;5068496;28;20299;-72
2022/01/08 09:37:44;;;;;;;26.87;14.13;;;;;;;2.98;89.45;100894.03;5069296;28;20193;-72
2022/01/08 09:40:13;;;;;;;22.13;14.57;;;;;;;3.01;89.21;100896.72;5069489;28;20224;-72
2022/01/08 09:42:44;;;;;;;27.47;14.87;;;;;;;3.03;89.92;100902.72;5064246;28;20607;-71
2022/01/08 09:45:10;;;;;;;22.57;14.00;;;;;;;2.98;89.62;100892.38;5060223;28;20194;-72
2022/01/08 09:47:36;;;;;;;24.67;14.70;;;;;;;3.00;89.76;100890.81;5050469;28;20222;-71
2022/01/08 09:50:03;;;;;;;25.60;15.23;;;;;;;3.29;88.50;100895.63;5051663;28;20173;-72
2022/01/08 09:52:30;;;;;;;23.27;13.93;;;;;;;3.27;88.05;100888.75;5050676;28;20627;-72
2022/01/08 09:54:55;;;;;;;25.53;15.47;;;;;;;3.29;88.16;100897.28;5069282;28;20265;-72
2022/01/08 09:57:20;;;;;;;23.87;14.20;;;;;;;3.45;88.12;100899.78;5069287;28;20698;-72
2022/01/08 09:59:46;;;;;;;24.03;14.03;;;;;;;3.26;88.38;100907.25;5062897;28;20750;-72
2022/01/08 10:02:11;;;;;;;18.80;12.63;;;;;;;3.28;88.41;100908.19;5049127;28;20646;-73
2022/01/08 10:04:38;;;;;;;24.07;14.53;;;;;;;3.29;88.82;100900.69;5049085;28;20182;-72
2022/01/08 10:07:14;;;;;;;22.03;14.70;;;;;;;3.45;87.53;100894.72;5064606;28;20213;-71
2022/01/08 10:10:13;;;;;;;24.37;15.03;;;;;;;3.57;87.42;100892.75;5052247;28;20197;-72
2022/01/08 10:12:43;;;;;;;23.40;14.87;;;;;;;3.78;86.74;100897.16;5069146;28;20653;-71
2022/01/08 10:17:53;;;;;;;23.17;14.63;;;;;;;3.51;87.20;100890.81;5069119;28;20242;-72
2022/01/08 10:20:36;;;;;;;20.07;13.90;;;;;;;3.65;86.70;100894.88;5068690;28;20208;-73
2022/01/08 10:23:11;;;;;;;18.90;13.67;;;;;;;4.53;84.09;100884.53;5068824;28;20184;-72
2022/01/08 10:25:37;;;;;;;19.10;12.43;;;;;;;5.06;81.83;100883.50;5068926;28;20192;-72
2022/01/08 10:28:03;;;;;;;15.67;11.83;;;;;;;5.40;80.14;100880.66;5068589;28;20181;-71
2022/01/08 10:30:28;;;;;;;16.73;10.80;;;;;;;5.66;78.30;100877.50;5068963;28;20239;-70
2022/01/08 10:32:58;;;;;;;17.47;10.43;;;;;;;5.80;77.62;100879.78;5067840;28;20338;-73
2022/01/08 10:35:50;;;;;;;16.67;11.17;;;;;;;5.69;76.49;100882.66;5068170;28;20291;-73
2022/01/08 10:38:17;;;;;;;14.73;10.20;;;;;;;6.55;74.26;100871.59;5070807;28;20256;-72
2022/01/08 10:40:42;;;;;;;13.00;9.70;;;;;;;5.55;76.29;100879.59;5054257;28;20244;-73
2022/01/08 10:43:24;;;;;;;16.70;9.73;;;;;;;7.66;70.89;100858.41;5052992;28;20220;-72
2022/01/08 10:45:52;;;;;;;12.83;9.20;;;;;;;7.87;69.00;100866.69;5052739;28;20217;-72
2022/01/08 10:48:25;;;;;;;12.43;9.27;;;;;;;10.22;60.74;100848.16;5057623;28;20592;-73
2022/01/08 10:50:51;;;;;;;13.53;9.07;;;;;;;8.67;62.83;100846.94;5070890;28;20185;-73
2022/01/08 10:53:16;;;;;;;10.37;9.03;;;;;;;8.49;66.38;100860.91;5072719;28;20204;-72
2022/01/08 10:55:42;;;;;;;15.60;8.80;;;;;;;8.13;67.18;100847.06;5072716;28;20851;-72
2022/01/08 10:58:07;;;;;;;12.70;8.57;;;;;;;8.75;64.75;100837.81;5072328;28;20662;-72
2022/01/08 11:00:33;;;;;;;14.57;8.60;;;;;;;8.42;65.67;100851.31;5072194;28;20295;-73
2022/01/08 11:02:58;;;;;;;12.13;8.80;;;;;;;8.46;64.85;100840.38;5072432;28;20193;-73
2022/01/08 11:05:24;;;;;;;13.00;8.77;;;;;;;8.07;66.36;100844.34;5071020;28;20177;-73
2022/01/08 11:07:49;;;;;;;12.63;8.53;;;;;;;7.87;67.14;100842.91;5072224;28;20189;-72
2022/01/08 11:10:24;;;;;;;25.00;8.70;;;;;;;7.47;68.55;100840.78;5072310;28;20268;-72
2022/01/08 11:12:51;;;;;;;11.43;8.27;;;;;;;7.58;67.63;100842.00;5072370;28;20205;-72
2022/01/08 11:17:46;;;;;;;14.43;8.23;;;;;;;9.04;63.59;100828.34;5072090;28;20224;-73
2022/01/08 11:20:19;;;;;;;10.20;7.90;;;;;;;8.88;63.59;100821.97;5070615;28;20221;-73
2022/01/08 11:22:56;;;;;;;12.73;8.10;;;;;;;9.83;61.88;100811.47;5072091;28;20193;-72
2022/01/08 11:25:32;;;;;;;9.53;7.90;;;;;;;10.47;58.72;100805.16;5072024;28;20645;-73
2022/01/08 11:28:09;;;;;;;13.87;9.60;;;;;;;9.58;60.93;100811.78;5070656;28;20191;-73
2022/01/08 11:30:39;;;;;;;12.70;8.13;;;;;;;10.82;55.92;100799.00;5056242;28;20247;-72
2022/01/08 11:33:13;;;;;;;11.40;8.83;;;;;;;11.29;55.44;100792.94;5052471;28;20196;-73
2022/01/08 11:35:38;;;;;;;11.30;8.60;;;;;;;11.26;54.48;100789.47;5069810;28;20292;-73
2022/01/08 11:38:07;;;;;;;11.23;8.43;;;;;;;12.71;50.67;100770.84;5071083;28;20717;-73
2022/01/08 11:40:36;;;;;;;11.73;8.50;;;;;;;13.26;49.35;100761.06;5071454;28;20251;-73